Racecast

Grace Kunzie

Poudre (CO) · 12 · FRONT RANGECO D5A5A · Compare head to head

Athlete rating 101.1 2024 XC season
Best race 106.0 TF
Races 30
Seasons 4 2021 — 2024

RankedNation #67340·CO #1525·CO D5A #847·FRONT RANGE #193·Team #15 ?

Speed rating — all races

Cross Country

XC speed rating

2024 XC 98.3

Poudre (CO) · Grade 12

Date Meet Event Result Place Rating Difficulty PR/SR Flags
2024-10-24 Spring Canyon Park 5000m 24:17 75th · 5th on team 106.0 +0.037 ★CR SR CSR RSR
2024-09-14 Heritage High School 5000m 25:34.4 114th · 6th on team 97.8 -0.001 SR CSR RSR
2024-09-07 Boardwalk Community Park 5000m 26:19.4 49th · 7th on team 95.5 +0.017 ★CR SR CSR RSR
2024-08-31 Fort Collins High School 5000m 27:14 56th · 2nd on team 93.7 +0.023 SR CSR RSR

2023 XC 99.7

Poudre (CO) · Grade 11

Date Meet Event Result Place Rating Difficulty PR/SR Flags
2023-10-19 Fairgrounds Park 5000m 30:41 83rd · 6th on team +0.049 ★CR CSR
2023-09-22 Clement Park 5000m 27:17.5 209th · 3rd on team 93.9 +0.030 CSR
2023-09-16 Poudre Learning Center 5000m 23:45.5 35th · 4th on team 99.6 -0.047 ★PR ★CR SR CSR
2023-09-09 Heritage High School 5000m 24:10.5 142nd · 5th on team 104.0 -0.001 PR ★CR SR CSR RSR
2023-09-01 Julia deKoevend Park 5000m 26:30.9 170th · 4th on team 99.9 +0.054 ★CR CSR
2023-08-26 Fort Collins High School 5000m 24:45 70th · 5th on team 101.2 +0.023 ★CR SR CSR RSR

2022 XC 102.5

Poudre (CO) · Grade 10

Date Meet Event Result Place Rating Difficulty PR/SR Flags
2022-10-12 Thornton High School 5000m 24:39.1 83rd · 1st on team 102.0 +0.009 ★CR CSR
2022-09-30 North Lake Park 5000m 24:37 16th · 2nd on team 105.5 +0.041 PR ★CR SR CSR RSR
2022-09-03 Little America Golf Course 5000m 25:51.1 156th · 8th on team 102.5 +0.065 ★CR CSR RSR
2022-08-27 Fort Collins High School 5000m 25:34 82nd · 6th on team 100.3 +0.023 CR CSR
2022-08-20 Spring Canyon Park 5000m 25:11 12th · 1st on team 102.4 +0.037 CR SR CSR RSR

2021 XC 99.9

Poudre (CO) · Grade 9

Date Meet Event Result Place Rating Difficulty PR/SR Flags
2021-10-13 Adams County Regional Park 5000m 25:30 60th · 3rd on team 103.2 +0.048 ★CR CSR
2021-10-08 Spring Canyon Park 5000m 25:35 97th · 8th on team 101.8 +0.037 CR CSR
2021-10-02 Mead High School 5000m 24:47 97th · 7th on team 102.8 +0.011 PR ★CR SR CSR
2021-09-24 Clement Park 5000m 25:33.5 33rd · 4th on team 100.9 +0.030 ★CR CSR
2021-09-17 North Lake Park 5000m 25:07 42nd · 5th on team 103.6 +0.041 PR CR R SR CSR RSR
2021-09-03 Little America Golf Course 5000m 27:27.1 133rd · 14th on team 97.0 +0.065 CR R CSR RSR
2021-08-28 Fort Collins High School 5000m 27:07 41st · 6th on team 95.3 +0.023 PR CR R SR CSR RSR
2021-08-21 Spring Canyon Park 5000m 27:18 51st · 6th on team 95.1 +0.037 PR CR R SR CSR RSR

Track & Field

TF speed rating

2022 TF 104.3

Poudre (CO) · Grade 9

Date Meet Event Result Place Rating Difficulty PR/SR Flags
2022-05-13 John Martin Invitational 800m 2:59.99 17th · 3rd on team 105.0 -0.011
2022-05-06 Front Range League Championships 1600m 6:49.1 39th · 4th on team 103.4 -0.009 ★PR SR
2022-05-06 Front Range League Championships 800m 2:59.15 38th · 3rd on team 106.0 -0.009 ★R RSR
2022-04-30 Liberty Bell Track and Field Invitational 800m 3:02.55 69th · 3rd on team 103.1 -0.015
2022-04-16 Mountain Range Mustang Invitational 1600m 6:59.69 44th · 2nd on team 100.6 -0.006 PR SR
2022-04-09 Hawk Invitational 800m 2:58.9 32nd · 2nd on team 105.9 -0.006
2022-04-02 Altitude Invitational 800m 2:58.26 39th · 2nd on team 106.0 -0.009 ★PR R SR RSR